Time;durP1;ratioP1;P1;durP2;ratioP2;P2;SDS_P1;SDS_P2;PMS_P1;PMS_P2;Temp;Humidity;BMP_temperature;BMP_pressure;BME280_temperature;BME280_humidity;BME280_pressure;Samples;Min_cycle;Max_cycle;Signal;HPM_P1;HPM_P2
2022/02/18 00:02:01;;;;;;;9.55;1.95;;;;;;;;;;5080740;28;20036;-79
2022/02/18 00:04:29;;;;;;;9.68;2.10;;;;;;;;;;5082383;28;20044;-78
2022/02/18 00:06:56;;;;;;;16.27;2.42;;;;;;;;;;5081193;28;20045;-79
2022/02/18 00:09:23;;;;;;;10.63;2.60;;;;;;;;;;5082557;28;20076;-80
2022/02/18 00:11:50;;;;;;;8.05;2.20;;;;;;;;;;5076162;28;20049;-78
2022/02/18 00:14:17;;;;;;;9.65;2.63;;;;;;;;;;5071960;28;20063;-78
2022/02/18 00:16:44;;;;;;;11.27;2.30;;;;;;;;;;5064495;28;20049;-79
2022/02/18 00:19:10;;;;;;;9.15;2.00;;;;;;;;;;5057056;28;20045;-78
2022/02/18 00:21:39;;;;;;;10.88;2.40;;;;;;;;;;5057341;28;20044;-79
2022/02/18 00:24:06;;;;;;;7.50;1.83;;;;;;;;;;5057302;28;20044;-78
2022/02/18 00:26:33;;;;;;;10.82;3.15;;;;;;;;;;5055782;28;20431;-80
2022/02/18 00:29:00;;;;;;;10.10;2.78;;;;;;;;;;5056393;28;20049;-78
2022/02/18 00:31:27;;;;;;;13.23;2.42;;;;;;;;;;5055990;28;20045;-78
2022/02/18 00:33:54;;;;;;;14.90;3.15;;;;;;;;;;5055634;28;20076;-78
2022/02/18 00:36:20;;;;;;;10.82;2.17;;;;;;;;;;5056378;28;20048;-78
2022/02/18 00:38:49;;;;;;;8.85;2.45;;;;;;;;;;5056368;28;20144;-79
2022/02/18 00:41:16;;;;;;;13.52;2.25;;;;;;;;;;5056898;28;20044;-78
2022/02/18 00:43:43;;;;;;;9.60;2.72;;;;;;;;;;5056704;28;20411;-77
2022/02/18 00:46:10;;;;;;;9.77;2.75;;;;;;;;;;5057566;28;20045;-78
2022/02/18 00:48:37;;;;;;;9.27;2.00;;;;;;;;;;5056359;28;20053;-78
2022/02/18 00:51:05;;;;;;;9.25;2.10;;;;;;;;;;5056600;28;20056;-78
2022/02/18 00:53:32;;;;;;;11.30;2.50;;;;;;;;;;5056521;28;20454;-79
2022/02/18 00:56:01;;;;;;;9.63;2.38;;;;;;;;;;5056520;28;20049;-78
2022/02/18 00:58:27;;;;;;;9.23;2.38;;;;;;;;;;5057319;28;20048;-78
2022/02/18 01:00:54;;;;;;;10.85;2.25;;;;;;;;;;5057819;28;20052;-79
2022/02/18 01:03:21;;;;;;;10.77;2.13;;;;;;;;;;5057342;28;20500;-78
2022/02/18 01:05:49;;;;;;;8.63;2.63;;;;;;;;;;5058064;28;20072;-78
2022/02/18 01:08:16;;;;;;;11.57;2.08;;;;;;;;;;5056436;28;20059;-78
2022/02/18 01:10:43;;;;;;;12.05;2.50;;;;;;;;;;5057479;28;20130;-78
2022/02/18 01:13:12;;;;;;;7.03;1.88;;;;;;;;;;5055910;28;20056;-77
2022/02/18 01:15:39;;;;;;;7.00;1.65;;;;;;;;;;5055610;28;20106;-78
2022/02/18 01:18:06;;;;;;;12.55;2.40;;;;;;;;;;5054790;28;20091;-78
2022/02/18 01:20:33;;;;;;;9.77;2.00;;;;;;;;;;5054763;28;20067;-78
2022/02/18 01:22:59;;;;;;;12.00;2.17;;;;;;;;;;5055269;28;20052;-76
2022/02/18 01:25:26;;;;;;;7.65;2.30;;;;;;;;;;5060258;28;20106;-77
2022/02/18 01:27:56;;;;;;;7.38;1.80;;;;;;;;;;5061073;28;20057;-77
2022/02/18 01:30:25;;;;;;;9.00;2.00;;;;;;;;;;5061096;28;20562;-78
2022/02/18 01:32:53;;;;;;;10.13;2.87;;;;;;;;;;5061717;28;20049;-78
2022/02/18 01:35:20;;;;;;;10.38;3.47;;;;;;;;;;5061704;28;20045;-78
2022/02/18 01:37:48;;;;;;;8.82;2.13;;;;;;;;;;5061206;28;20118;-76
2022/02/18 01:40:15;;;;;;;10.60;2.17;;;;;;;;;;5061214;28;20049;-77
2022/02/18 01:42:42;;;;;;;11.48;1.95;;;;;;;;;;5060151;28;20377;-77
2022/02/18 01:45:10;;;;;;;15.13;2.72;;;;;;;;;;5061250;28;20512;-77
2022/02/18 01:47:38;;;;;;;7.50;1.70;;;;;;;;;;5060509;28;20048;-77
2022/02/18 01:50:06;;;;;;;8.20;1.98;;;;;;;;;;5061820;28;20056;-77
2022/02/18 01:52:35;;;;;;;9.60;2.10;;;;;;;;;;5059272;28;20056;-78
2022/02/18 01:55:10;;;;;;;9.60;2.67;;;;;;;;;;5053902;28;20053;-79
2022/02/18 01:57:38;;;;;;;7.63;2.00;;;;;;;;;;5052785;28;20044;-79
2022/02/18 02:00:07;;;;;;;10.02;2.00;;;;;;;;;;5052887;28;20109;-79
2022/02/18 02:02:34;;;;;;;9.25;2.00;;;;;;;;;;5052875;28;20446;-78
2022/02/18 02:05:02;;;;;;;8.30;1.95;;;;;;;;;;5052848;28;20392;-79
2022/02/18 02:07:29;;;;;;;12.02;2.17;;;;;;;;;;5053134;28;20053;-78
2022/02/18 02:09:55;;;;;;;9.48;1.90;;;;;;;;;;5070741;28;20044;-78
2022/02/18 02:12:22;;;;;;;9.50;2.15;;;;;;;;;;5077735;28;20032;-78
2022/02/18 02:14:49;;;;;;;8.88;2.42;;;;;;;;;;5078004;28;20140;-78
2022/02/18 02:17:17;;;;;;;8.88;2.60;;;;;;;;;;5077989;28;20040;-77
2022/02/18 02:19:44;;;;;;;6.97;2.15;;;;;;;;;;5077468;28;20059;-77
2022/02/18 02:22:15;;;;;;;8.50;1.90;;;;;;;;;;5078041;28;20067;-77
2022/02/18 02:24:43;;;;;;;11.02;2.30;;;;;;;;;;5076778;28;20056;-78
2022/02/18 02:27:11;;;;;;;12.60;3.00;;;;;;;;;;5075650;28;20043;-78
2022/02/18 02:29:38;;;;;;;9.75;2.33;;;;;;;;;;5075789;28;20045;-77
2022/02/18 02:32:05;;;;;;;8.30;2.35;;;;;;;;;;5073872;28;20052;-78
2022/02/18 02:34:33;;;;;;;10.50;2.38;;;;;;;;;;5064991;28;20044;-78
2022/02/18 02:37:01;;;;;;;16.98;2.70;;;;;;;;;;5061070;28;20048;-78
2022/02/18 02:39:31;;;;;;;12.45;2.40;;;;;;;;;;5060632;28;20072;-77
2022/02/18 02:41:59;;;;;;;8.82;1.80;;;;;;;;;;5060057;28;20049;-79
2022/02/18 02:44:27;;;;;;;10.68;1.98;;;;;;;;;;5058383;28;20052;-78
2022/02/18 02:46:53;;;;;;;11.40;3.47;;;;;;;;;;5058747;28;20103;-78
2022/02/18 02:49:20;;;;;;;8.27;1.67;;;;;;;;;;5058127;28;20049;-77
2022/02/18 02:51:48;;;;;;;11.48;2.13;;;;;;;;;;5054949;28;20056;-77
2022/02/18 02:54:15;;;;;;;8.95;2.15;;;;;;;;;;5055825;28;20048;-79
2022/02/18 02:56:42;;;;;;;11.10;1.92;;;;;;;;;;5075434;28;20056;-78
2022/02/18 02:59:10;;;;;;;8.52;2.15;;;;;;;;;;5077691;28;20049;-78
2022/02/18 03:01:37;;;;;;;11.40;3.03;;;;;;;;;;5079094;28;20111;-78
2022/02/18 03:04:04;;;;;;;7.28;2.13;;;;;;;;;;5078496;28;20045;-78
2022/02/18 03:06:31;;;;;;;8.98;2.10;;;;;;;;;;5077289;28;20048;-78
2022/02/18 03:08:58;;;;;;;11.02;2.42;;;;;;;;;;5079848;28;20052;-79
2022/02/18 03:11:25;;;;;;;9.27;1.95;;;;;;;;;;5080245;28;20052;-79
2022/02/18 03:13:53;;;;;;;7.70;2.72;;;;;;;;;;5078692;28;20041;-79
2022/02/18 03:16:22;;;;;;;12.73;2.20;;;;;;;;;;5078237;28;20121;-78
2022/02/18 03:18:49;;;;;;;7.40;2.00;;;;;;;;;;5078077;28;20048;-79
2022/02/18 03:21:16;;;;;;;11.68;2.35;;;;;;;;;;5078712;28;20052;-79
2022/02/18 03:23:45;;;;;;;8.40;2.22;;;;;;;;;;5078455;28;20136;-79
2022/02/18 03:26:13;;;;;;;7.32;2.30;;;;;;;;;;5078465;28;20045;-79
2022/02/18 03:28:40;;;;;;;12.07;2.33;;;;;;;;;;5077956;28;20049;-78
2022/02/18 03:31:08;;;;;;;8.18;1.75;;;;;;;;;;5081782;28;20503;-78
2022/02/18 03:33:38;;;;;;;11.48;2.92;;;;;;;;;;5082104;28;20080;-78
2022/02/18 03:36:05;;;;;;;8.55;1.77;;;;;;;;;;5082151;28;20098;-78
2022/02/18 03:38:32;;;;;;;11.48;2.05;;;;;;;;;;5081562;28;20151;-78
2022/02/18 03:40:59;;;;;;;13.48;3.20;;;;;;;;;;5081726;28;20045;-78
2022/02/18 03:43:26;;;;;;;9.73;2.35;;;;;;;;;;5081548;28;20044;-79
2022/02/18 03:45:53;;;;;;;8.57;2.13;;;;;;;;;;5080727;28;20056;-78
2022/02/18 03:48:20;;;;;;;8.45;2.17;;;;;;;;;;5079997;28;20101;-78
2022/02/18 03:50:48;;;;;;;11.20;2.75;;;;;;;;;;5080583;28;20051;-79
2022/02/18 03:53:15;;;;;;;13.52;2.63;;;;;;;;;;5081626;28;20052;-78
2022/02/18 03:55:42;;;;;;;9.18;2.10;;;;;;;;;;5071168;28;20099;-78
2022/02/18 03:58:09;;;;;;;10.43;2.20;;;;;;;;;;5060425;28;20091;-79
2022/02/18 04:00:36;;;;;;;9.95;2.08;;;;;;;;;;5061320;28;20045;-78
2022/02/18 04:03:03;;;;;;;12.80;2.47;;;;;;;;;;5058664;28;20049;-79
2022/02/18 04:05:30;;;;;;;9.65;2.30;;;;;;;;;;5058523;28;20045;-78
2022/02/18 04:07:58;;;;;;;10.27;1.90;;;;;;;;;;5060379;28;20458;-78
2022/02/18 04:10:25;;;;;;;11.02;2.20;;;;;;;;;;5061320;28;20056;-78
2022/02/18 04:12:52;;;;;;;7.50;2.15;;;;;;;;;;5061777;28;20053;-78
2022/02/18 04:15:19;;;;;;;9.88;2.45;;;;;;;;;;5057290;28;20049;-77
2022/02/18 04:17:46;;;;;;;10.73;2.35;;;;;;;;;;5055683;28;20110;-78
2022/02/18 04:20:13;;;;;;;11.85;2.30;;;;;;;;;;5055771;28;20440;-78
2022/02/18 04:22:39;;;;;;;12.55;2.35;;;;;;;;;;5055941;28;20110;-78
2022/02/18 04:25:09;;;;;;;9.20;1.80;;;;;;;;;;5055506;28;20053;-78
2022/02/18 04:27:35;;;;;;;6.60;1.83;;;;;;;;;;5057224;28;20474;-77
2022/02/18 04:30:03;;;;;;;12.18;2.20;;;;;;;;;;5057879;28;20459;-77
2022/02/18 04:32:30;;;;;;;9.13;2.00;;;;;;;;;;5056913;28;20450;-77
2022/02/18 04:34:56;;;;;;;15.95;2.70;;;;;;;;;;5064458;22;20041;-76
2022/02/18 04:37:23;;;;;;;9.25;2.38;;;;;;;;;;5034924;28;20056;-78
2022/02/18 04:39:50;;;;;;;10.38;2.08;;;;;;;;;;5034551;28;20504;-78
2022/02/18 04:42:20;;;;;;;10.75;2.55;;;;;;;;;;5033703;28;20511;-77
2022/02/18 04:44:46;;;;;;;9.13;2.50;;;;;;;;;;5034418;28;20056;-77
2022/02/18 04:47:14;;;;;;;9.55;2.53;;;;;;;;;;5034381;28;20473;-76
2022/02/18 04:49:41;;;;;;;9.63;2.45;;;;;;;;;;5034280;28;20052;-78
2022/02/18 04:52:08;;;;;;;8.75;2.58;;;;;;;;;;5034449;28;20470;-78
2022/02/18 04:54:35;;;;;;;8.63;2.17;;;;;;;;;;5034175;28;20107;-77
2022/02/18 04:57:02;;;;;;;14.70;3.55;;;;;;;;;;5034246;28;20045;-78
2022/02/18 04:59:30;;;;;;;11.73;2.33;;;;;;;;;;5033998;28;20057;-77
2022/02/18 05:01:57;;;;;;;13.25;2.80;;;;;;;;;;5034273;28;20049;-77
2022/02/18 05:04:24;;;;;;;8.45;2.72;;;;;;;;;;5034171;28;20060;-78
2022/02/18 05:06:51;;;;;;;10.68;2.58;;;;;;;;;;5033920;28;20143;-78
2022/02/18 05:09:18;;;;;;;10.20;2.13;;;;;;;;;;5034401;28;20052;-78
2022/02/18 05:11:45;;;;;;;9.73;2.22;;;;;;;;;;5035153;28;20132;-76
2022/02/18 05:14:12;;;;;;;10.13;2.08;;;;;;;;;;5035208;28;20092;-77
2022/02/18 05:16:40;;;;;;;9.38;3.22;;;;;;;;;;5034117;28;20049;-77
2022/02/18 05:19:09;;;;;;;9.63;2.05;;;;;;;;;;5034038;28;20432;-78
2022/02/18 05:21:36;;;;;;;13.05;2.20;;;;;;;;;;5033953;28;20061;-76
2022/02/18 05:24:04;;;;;;;12.68;2.35;;;;;;;;;;5033675;28;20496;-77
2022/02/18 05:26:31;;;;;;;9.50;2.25;;;;;;;;;;5034000;28;20046;-77
2022/02/18 05:28:57;;;;;;;9.43;3.28;;;;;;;;;;5035343;28;20467;-78
2022/02/18 05:31:25;;;;;;;9.38;2.58;;;;;;;;;;5035534;28;20053;-77
2022/02/18 05:33:53;;;;;;;8.95;2.22;;;;;;;;;;5035487;28;20107;-78
2022/02/18 05:36:20;;;;;;;15.48;2.47;;;;;;;;;;5034827;28;20045;-78
2022/02/18 05:38:47;;;;;;;10.70;2.20;;;;;;;;;;5034843;28;20060;-78
2022/02/18 05:41:14;;;;;;;7.85;2.22;;;;;;;;;;5034003;28;20054;-77
2022/02/18 05:43:41;;;;;;;5.60;2.28;;;;;;;;;;5033852;28;20046;-77
2022/02/18 05:46:08;;;;;;;11.68;2.40;;;;;;;;;;5033685;28;20045;-79
2022/02/18 05:48:35;;;;;;;12.25;2.05;;;;;;;;;;5033421;28;20177;-77
2022/02/18 05:51:05;;;;;;;8.23;2.67;;;;;;;;;;5033538;28;20045;-76
2022/02/18 05:53:32;;;;;;;10.88;2.80;;;;;;;;;;5032750;28;20103;-77
2022/02/18 05:55:59;;;;;;;13.57;2.83;;;;;;;;;;5033287;28;20050;-76
2022/02/18 05:58:26;;;;;;;13.90;3.38;;;;;;;;;;5033126;28;20058;-76
2022/02/18 06:00:53;;;;;;;7.20;1.98;;;;;;;;;;5032940;28;20045;-76
2022/02/18 06:03:20;;;;;;;9.40;2.28;;;;;;;;;;5032990;28;20508;-77
2022/02/18 06:05:47;;;;;;;9.23;2.83;;;;;;;;;;5032934;28;20504;-76
2022/02/18 06:08:16;;;;;;;8.95;2.20;;;;;;;;;;5033098;28;20076;-75
2022/02/18 06:10:42;;;;;;;10.05;2.58;;;;;;;;;;5032675;28;20049;-77
2022/02/18 06:13:09;;;;;;;13.18;3.25;;;;;;;;;;5034327;28;20056;-77
2022/02/18 06:15:37;;;;;;;10.20;2.92;;;;;;;;;;5033018;28;20058;-76
2022/02/18 06:18:04;;;;;;;9.60;2.83;;;;;;;;;;5032473;28;20042;-76
2022/02/18 06:20:31;;;;;;;11.40;2.88;;;;;;;;;;5032802;28;20397;-77
2022/02/18 06:22:58;;;;;;;8.57;2.85;;;;;;;;;;5032668;28;20072;-77
2022/02/18 06:25:26;;;;;;;12.50;2.95;;;;;;;;;;5032773;28;20392;-76
2022/02/18 06:28:04;;;;;;;11.38;2.65;;;;;;;;;;5032361;28;20427;-77
2022/02/18 06:30:31;;;;;;;10.00;2.80;;;;;;;;;;5033270;28;20396;-77
2022/02/18 06:32:58;;;;;;;13.50;2.58;;;;;;;;;;5032391;28;20056;-76
2022/02/18 06:35:25;;;;;;;9.57;3.17;;;;;;;;;;5032307;28;20475;-76
2022/02/18 06:37:52;;;;;;;11.73;3.30;;;;;;;;;;5032469;28;20046;-77
2022/02/18 06:40:19;;;;;;;14.32;3.40;;;;;;;;;;5032588;28;20076;-77
2022/02/18 06:42:47;;;;;;;11.18;3.65;;;;;;;;;;5032412;28;20495;-77
2022/02/18 06:45:17;;;;;;;9.80;3.83;;;;;;;;;;5032687;28;20053;-77
2022/02/18 06:47:45;;;;;;;15.88;3.67;;;;;;;;;;5032946;28;20049;-78
2022/02/18 06:50:13;;;;;;;12.27;3.35;;;;;;;;;;5032908;28;20053;-77
2022/02/18 06:52:41;;;;;;;11.82;3.53;;;;;;;;;;5033551;28;20045;-78
2022/02/18 06:55:08;;;;;;;10.43;3.08;;;;;;;;;;5027766;28;20578;-77
2022/02/18 06:57:39;;;;;;;12.00;3.35;;;;;;;;;;5013026;28;20491;-78
2022/02/18 07:00:08;;;;;;;;;;;;;;;;;;5013967;28;20127;-78
2022/02/18 07:02:34;;;;;;;10.65;3.15;;;;;;;;;;5012784;28;20360;-78
2022/02/18 07:05:01;;;;;;;12.50;3.70;;;;;;;;;;5013230;28;20050;-77
2022/02/18 07:07:28;;;;;;;12.73;4.22;;;;;;;;;;5014108;28;20461;-77
2022/02/18 07:09:55;;;;;;;10.80;2.97;;;;;;;;;;5013621;28;20096;-77
2022/02/18 07:12:24;;;;;;;8.23;3.20;;;;;;;;;;5013437;28;20110;-78
2022/02/18 07:14:53;;;;;;;9.85;3.55;;;;;;;;;;5013035;28;20057;-79
2022/02/18 07:17:21;;;;;;;14.05;3.95;;;;;;;;;;5012805;28;20057;-78
2022/02/18 07:19:48;;;;;;;10.52;3.50;;;;;;;;;;5013787;28;20053;-77
2022/02/18 07:22:15;;;;;;;11.88;4.05;;;;;;;;;;5013145;28;20128;-78
2022/02/18 07:24:44;;;;;;;11.65;3.45;;;;;;;;;;5012982;28;20053;-77
2022/02/18 07:27:11;;;;;;;9.77;3.22;;;;;;;;;;5012896;28;20046;-78
2022/02/18 07:29:38;;;;;;;12.32;3.35;;;;;;;;;;5012999;28;20115;-78
2022/02/18 07:32:06;;;;;;;11.65;3.38;;;;;;;;;;5012775;28;20100;-77
2022/02/18 07:34:34;;;;;;;9.98;2.92;;;;;;;;;;5012593;28;20100;-77
2022/02/18 07:37:01;;;;;;;14.10;3.17;;;;;;;;;;5012038;28;20053;-77
2022/02/18 07:39:28;;;;;;;9.95;2.60;;;;;;;;;;5012424;28;20059;-78
2022/02/18 07:41:55;;;;;;;10.85;4.10;;;;;;;;;;5012618;28;20050;-76
2022/02/18 07:44:22;;;;;;;9.90;3.03;;;;;;;;;;5014158;28;20531;-76
2022/02/18 07:46:49;;;;;;;13.88;3.22;;;;;;;;;;5016175;28;20049;-78
2022/02/18 07:49:16;;;;;;;15.63;4.25;;;;;;;;;;5016974;28;20045;-78
2022/02/18 07:51:44;;;;;;;12.25;2.53;;;;;;;;;;5016377;28;20085;-78
2022/02/18 07:54:11;;;;;;;12.40;2.97;;;;;;;;;;5016538;28;20397;-77
2022/02/18 07:56:38;;;;;;;14.98;4.47;;;;;;;;;;5032766;28;20431;-78
2022/02/18 07:59:05;;;;;;;12.82;3.00;;;;;;;;;;5037200;28;20059;-78
2022/02/18 08:01:32;;;;;;;8.50;2.67;;;;;;;;;;5036702;28;20049;-78
2022/02/18 08:03:59;;;;;;;11.48;2.97;;;;;;;;;;5036581;28;20049;-78
2022/02/18 08:06:26;;;;;;;10.75;3.30;;;;;;;;;;5036239;28;20056;-77
2022/02/18 08:08:54;;;;;;;14.32;3.80;;;;;;;;;;5036697;28;20049;-78
2022/02/18 08:11:20;;;;;;;14.88;4.90;;;;;;;;;;5033650;28;20049;-77
2022/02/18 08:13:47;;;;;;;10.07;4.05;;;;;;;;;;5033910;28;20049;-76
2022/02/18 08:16:14;;;;;;;8.77;3.08;;;;;;;;;;5034895;28;20038;-76
2022/02/18 08:18:43;;;;;;;6.45;2.05;;;;;;;;;;5037660;28;20076;-76
2022/02/18 08:21:11;;;;;;;8.80;3.15;;;;;;;;;;5037542;28;20045;-78
2022/02/18 08:23:38;;;;;;;8.32;3.42;;;;;;;;;;5039392;28;20114;-78
2022/02/18 08:26:06;;;;;;;10.63;2.47;;;;;;;;;;5038932;28;20060;-77
2022/02/18 08:28:33;;;;;;;9.23;2.28;;;;;;;;;;5038937;28;20056;-79
2022/02/18 08:31:00;;;;;;;11.65;3.80;;;;;;;;;;5039999;28;20042;-79
2022/02/18 08:33:27;;;;;;;9.70;2.67;;;;;;;;;;5039725;28;20053;-79
2022/02/18 08:35:54;;;;;;;9.55;2.60;;;;;;;;;;5040643;28;20046;-79
2022/02/18 08:38:21;;;;;;;10.20;2.55;;;;;;;;;;5041490;28;20049;-78
2022/02/18 08:40:47;;;;;;;6.05;2.88;;;;;;;;;;5038762;28;20065;-80
2022/02/18 08:43:16;;;;;;;8.57;2.28;;;;;;;;;;5039119;28;20057;-78
2022/02/18 08:45:43;;;;;;;10.80;3.78;;;;;;;;;;5038276;28;20050;-80
2022/02/18 08:48:10;;;;;;;8.07;2.63;;;;;;;;;;5039882;28;20057;-79
2022/02/18 08:50:36;;;;;;;8.18;2.42;;;;;;;;;;5038961;28;20049;-80
2022/02/18 08:53:03;;;;;;;9.60;2.88;;;;;;;;;;5037955;28;20103;-79
2022/02/18 08:55:30;;;;;;;9.23;2.40;;;;;;;;;;5038736;28;20060;-79
2022/02/18 08:57:58;;;;;;;10.52;3.38;;;;;;;;;;5038724;28;20037;-79
2022/02/18 09:00:26;;;;;;;9.10;2.75;;;;;;;;;;5038293;28;20072;-79
2022/02/18 09:02:53;;;;;;;9.13;2.17;;;;;;;;;;5040892;28;20046;-79
2022/02/18 09:05:20;;;;;;;9.35;2.42;;;;;;;;;;5038556;28;20050;-79
2022/02/18 09:07:46;;;;;;;8.82;2.67;;;;;;;;;;5037497;28;20053;-80
2022/02/18 09:10:13;;;;;;;11.95;4.75;;;;;;;;;;5037191;28;20052;-78
2022/02/18 09:12:41;;;;;;;12.60;5.60;;;;;;;;;;5037864;28;20073;-78
2022/02/18 09:15:10;;;;;;;10.15;4.10;;;;;;;;;;5036806;28;20163;-79
2022/02/18 09:17:38;;;;;;;10.18;2.83;;;;;;;;;;5037956;28;20045;-77
2022/02/18 09:20:07;;;;;;;11.27;2.55;;;;;;;;;;5041812;28;20111;-80
2022/02/18 09:22:34;;;;;;;9.05;2.80;;;;;;;;;;5041566;28;20479;-78
2022/02/18 09:25:01;;;;;;;8.32;2.45;;;;;;;;;;5040290;28;20096;-78
2022/02/18 09:27:28;;;;;;;10.57;2.92;;;;;;;;;;5038025;28;20041;-79
2022/02/18 09:29:56;;;;;;;6.25;2.03;;;;;;;;;;5036139;28;20406;-78
2022/02/18 09:32:23;;;;;;;10.15;2.53;;;;;;;;;;5033977;28;20052;-78
2022/02/18 09:34:52;;;;;;;12.32;3.33;;;;;;;;;;5034248;28;20045;-77
2022/02/18 09:37:19;;;;;;;8.07;2.13;;;;;;;;;;5033783;28;20161;-79
2022/02/18 09:39:46;;;;;;;8.40;2.25;;;;;;;;;;5033562;28;20096;-77
2022/02/18 09:42:14;;;;;;;6.05;1.73;;;;;;;;;;5035618;28;20049;-80
2022/02/18 09:44:42;;;;;;;9.02;2.10;;;;;;;;;;5037329;28;20463;-79
2022/02/18 09:47:09;;;;;;;7.82;1.90;;;;;;;;;;5040005;28;20080;-81
2022/02/18 09:49:37;;;;;;;6.03;2.08;;;;;;;;;;5042555;28;20108;-78
2022/02/18 09:52:07;;;;;;;7.03;2.40;;;;;;;;;;5043459;28;20088;-80
2022/02/18 09:54:34;;;;;;;8.88;3.40;;;;;;;;;;5038159;28;20052;-78
2022/02/18 09:57:01;;;;;;;11.80;3.60;;;;;;;;;;5021620;28;20049;-79
2022/02/18 09:59:28;;;;;;;7.38;2.85;;;;;;;;;;5025280;28;20080;-79
2022/02/18 10:01:55;;;;;;;7.82;2.97;;;;;;;;;;5020500;28;20037;-80
2022/02/18 10:04:22;;;;;;;5.88;1.83;;;;;;;;;;5018628;28;20077;-79
2022/02/18 10:06:49;;;;;;;6.57;2.00;;;;;;;;;;5017061;28;20050;-79
2022/02/18 10:09:37;;;;;;;6.35;2.53;;;;;;;;;;5020022;28;20108;-79
2022/02/18 10:12:04;;;;;;;8.98;3.05;;;;;;;;;;5024573;28;20053;-80
2022/02/18 10:14:52;;;;;;;7.75;2.00;;;;;;;;;;5019992;28;20194;-78
2022/02/18 10:17:18;;;;;;;8.18;2.10;;;;;;;;;;5015709;28;20077;-79
2022/02/18 10:19:50;;;;;;;6.70;2.20;;;;;;;;;;5014622;28;20116;-80
2022/02/18 10:22:23;;;;;;;8.30;2.25;;;;;;;;;;5014183;28;20057;-80
2022/02/18 10:24:52;;;;;;;12.13;2.50;;;;;;;;;;5030374;28;20439;-78
2022/02/18 10:27:22;;;;;;;6.32;1.92;;;;;;;;;;5037746;28;20081;-79
2022/02/18 10:29:59;;;;;;;6.90;1.88;;;;;;;;;;5040951;28;20064;-79
2022/02/18 10:32:26;;;;;;;8.10;3.20;;;;;;;;;;5038845;28;20378;-78
2022/02/18 10:34:56;;;;;;;9.60;3.50;;;;;;;;;;5044650;28;20056;-80
2022/02/18 10:37:24;;;;;;;7.93;2.40;;;;;;;;;;5038673;28;20045;-80
2022/02/18 10:40:05;;;;;;;11.27;2.40;;;;;;;;;;5033543;28;20803;-79
2022/02/18 10:42:32;;;;;;;5.68;1.90;;;;;;;;;;5034278;28;20397;-80
2022/02/18 10:45:09;;;;;;;8.32;3.17;;;;;;;;;;5083932;22;20077;-80
2022/02/18 10:47:36;;;;;;;9.63;2.92;;;;;;;;;;5076996;28;20041;-80
2022/02/18 10:50:13;;;;;;;6.70;2.30;;;;;;;;;;5079829;28;20109;-81
2022/02/18 10:52:40;;;;;;;6.80;2.97;;;;;;;;;;5078995;28;20052;-80
2022/02/18 10:55:10;;;;;;;9.88;2.80;;;;;;;;;;5089866;28;20088;-81
2022/02/18 10:57:37;;;;;;;8.73;3.10;;;;;;;;;;5098571;28;20043;-81
2022/02/18 11:00:16;;;;;;;9.15;2.80;;;;;;;;;;5099075;28;20498;-79
2022/02/18 11:02:46;;;;;;;10.23;2.60;;;;;;;;;;5097291;28;20051;-80
2022/02/18 11:05:30;;;;;;;9.50;2.40;;;;;;;;;;5100331;28;20040;-80
2022/02/18 11:07:58;;;;;;;11.15;2.30;;;;;;;;;;5106131;28;20059;-79
2022/02/18 11:10:34;;;;;;;5.07;1.67;;;;;;;;;;5107338;28;20067;-80
2022/02/18 11:13:02;;;;;;;7.95;2.63;;;;;;;;;;5102154;28;20102;-81
2022/02/18 11:15:29;;;;;;;7.70;2.17;;;;;;;;;;5097333;28;20052;-83
2022/02/18 11:17:57;;;;;;;7.10;2.13;;;;;;;;;;5098023;28;20053;-83
2022/02/18 11:20:25;;;;;;;7.43;1.80;;;;;;;;;;5097992;28;20052;-81
2022/02/18 11:22:57;;;;;;;5.75;1.70;;;;;;;;;;5095657;28;20462;-83
2022/02/18 11:25:24;;;;;;;5.10;2.08;;;;;;;;;;5099551;28;20097;-81
2022/02/18 11:27:54;;;;;;;5.82;2.33;;;;;;;;;;5099213;28;20490;-81
2022/02/18 11:30:21;;;;;;;4.07;1.75;;;;;;;;;;5099266;28;20052;-82
2022/02/18 11:33:02;;;;;;;5.72;1.77;;;;;;;;;;5099279;28;20048;-82
2022/02/18 11:35:42;;;;;;;6.40;2.20;;;;;;;;;;5100220;28;20051;-81
2022/02/18 11:38:26;;;;;;;5.78;1.70;;;;;;;;;;5099239;28;20048;-82
2022/02/18 11:41:11;;;;;;;4.93;1.90;;;;;;;;;;5099560;28;20095;-81
2022/02/18 11:43:46;;;;;;;5.75;2.10;;;;;;;;;;5100525;28;20044;-81
2022/02/18 11:46:22;;;;;;;8.25;2.35;;;;;;;;;;5099207;28;20098;-81
2022/02/18 11:48:51;;;;;;;5.68;1.42;;;;;;;;;;5099857;28;20050;-82
2022/02/18 11:51:19;;;;;;;9.70;2.00;;;;;;;;;;5103119;28;20548;-82
2022/02/18 11:53:49;;;;;;;5.47;1.67;;;;;;;;;;5103887;28;20044;-81
2022/02/18 11:56:17;;;;;;;5.78;1.80;;;;;;;;;;5103260;28;20525;-82
2022/02/18 11:59:00;;;;;;;8.27;2.10;;;;;;;;;;5103567;28;20056;-82
2022/02/18 12:02:02;;;;;;;6.45;1.98;;;;;;;;;;5103844;28;20051;-81
2022/02/18 12:04:29;;;;;;;7.50;2.20;;;;;;;;;;5102532;28;20044;-81
2022/02/18 12:07:29;;;;;;;6.30;2.05;;;;;;;;;;5103562;28;20048;-81
2022/02/18 12:10:10;;;;;;;6.18;2.10;;;;;;;;;;5104288;28;20140;-82
2022/02/18 12:12:37;;;;;;;;;;;;;;;;;;5102450;28;20043;-81
2022/02/18 12:15:12;;;;;;;5.63;2.00;;;;;;;;;;5102243;28;19927;-83
2022/02/18 12:17:42;;;;;;;8.50;2.78;;;;;;;;;;5103670;28;20062;-81
2022/02/18 12:20:24;;;;;;;8.52;3.20;;;;;;;;;;5102468;28;20051;-81
2022/02/18 12:22:52;;;;;;;6.22;1.55;;;;;;;;;;5103600;28;20048;-81
2022/02/18 12:25:22;;;;;;;6.80;2.17;;;;;;;;;;5102973;28;20493;-82
2022/02/18 12:27:49;;;;;;;8.02;2.00;;;;;;;;;;5102179;28;20048;-82
2022/02/18 12:30:45;;;;;;;4.72;1.80;;;;;;;;;;5102907;28;20048;-82
2022/02/18 12:33:12;;;;;;;4.90;2.05;;;;;;;;;;5103876;28;20071;-82
2022/02/18 12:35:40;;;;;;;5.82;2.17;;;;;;;;;;5102264;28;20289;-81
2022/02/18 12:38:09;;;;;;;4.85;1.83;;;;;;;;;;5102584;28;20052;-81
2022/02/18 12:40:39;;;;;;;8.27;2.05;;;;;;;;;;5103252;28;20048;-81
2022/02/18 12:43:11;;;;;;;5.00;2.08;;;;;;;;;;5102822;28;20498;-82
2022/02/18 12:45:42;;;;;;;7.30;2.30;;;;;;;;;;5105383;28;20062;-82
2022/02/18 12:48:09;;;;;;;8.65;2.95;;;;;;;;;;5104070;28;20040;-81
2022/02/18 12:50:39;;;;;;;6.15;2.10;;;;;;;;;;5102136;28;20044;-81
2022/02/18 12:53:07;;;;;;;7.50;2.40;;;;;;;;;;5102584;28;20622;-82
2022/02/18 12:55:35;;;;;;;7.15;2.80;;;;;;;;;;5093294;28;20474;-82
2022/02/18 12:58:03;;;;;;;7.95;3.17;;;;;;;;;;5081969;28;20060;-82
2022/02/18 13:00:32;;;;;;;12.35;3.17;;;;;;;;;;5082418;28;20052;-81
2022/02/18 13:03:01;;;;;;;8.52;2.47;;;;;;;;;;5076756;28;20497;-82
2022/02/18 13:05:32;;;;;;;6.10;2.42;;;;;;;;;;5077112;28;20044;-83
2022/02/18 13:08:01;;;;;;;9.82;2.40;;;;;;;;;;5076239;28;20056;-81
2022/02/18 13:10:32;;;;;;;6.90;2.40;;;;;;;;;;5086795;28;20044;-81
2022/02/18 13:13:00;;;;;;;7.60;2.50;;;;;;;;;;5097699;28;20048;-83
2022/02/18 13:15:35;;;;;;;7.97;2.22;;;;;;;;;;5094117;28;20027;-86
2022/02/18 13:18:09;;;;;;;6.38;2.20;;;;;;;;;;5113342;28;20038;-83
2022/02/18 13:20:38;;;;;;;7.93;2.13;;;;;;;;;;5095349;28;20044;-83
2022/02/18 13:23:07;;;;;;;9.00;2.58;;;;;;;;;;5092524;28;20044;-82
2022/02/18 13:25:36;;;;;;;5.93;2.50;;;;;;;;;;5092752;28;20047;-80
2022/02/18 13:28:06;;;;;;;8.23;2.13;;;;;;;;;;5087377;28;20059;-81
2022/02/18 13:30:35;;;;;;;9.15;4.18;;;;;;;;;;5098478;28;20047;-82
2022/02/18 13:33:05;;;;;;;8.77;2.58;;;;;;;;;;5092636;28;20078;-81
2022/02/18 13:35:35;;;;;;;6.93;2.30;;;;;;;;;;5087587;28;20071;-82
2022/02/18 13:38:02;;;;;;;6.78;2.00;;;;;;;;;;5091852;28;20052;-82
2022/02/18 13:40:29;;;;;;;6.40;3.35;;;;;;;;;;5088111;28;20107;-82
2022/02/18 13:42:58;;;;;;;6.85;1.90;;;;;;;;;;5092837;28;20040;-82
2022/02/18 13:45:25;;;;;;;6.78;2.33;;;;;;;;;;5095548;28;20050;-81
2022/02/18 13:47:52;;;;;;;4.40;2.13;;;;;;;;;;5095331;28;20048;-81
2022/02/18 13:50:20;;;;;;;7.72;2.30;;;;;;;;;;5087567;28;20036;-81
2022/02/18 13:52:49;;;;;;;9.15;3.03;;;;;;;;;;5087664;28;20059;-81
2022/02/18 13:55:27;;;;;;;10.70;3.28;;;;;;;;;;5084850;28;20052;-82
2022/02/18 13:57:54;;;;;;;6.25;2.20;;;;;;;;;;5083378;28;20044;-82
2022/02/18 14:00:38;;;;;;;8.48;2.92;;;;;;;;;;5083375;28;20056;-81
2022/02/18 14:03:08;;;;;;;7.80;2.47;;;;;;;;;;5083438;28;20040;-81
2022/02/18 14:05:35;;;;;;;9.38;3.20;;;;;;;;;;5095661;28;20040;-82
2022/02/18 14:08:09;;;;;;;5.03;2.03;;;;;;;;;;5084813;28;20040;-81
2022/02/18 14:10:44;;;;;;;5.32;1.95;;;;;;;;;;5088838;28;20532;-81
2022/02/18 14:13:32;;;;;;;7.30;2.10;;;;;;;;;;5104848;28;20027;-81
2022/02/18 14:16:10;;;;;;;6.25;1.90;;;;;;;;;;5101241;28;20100;-81
2022/02/18 14:18:55;;;;;;;8.65;2.40;;;;;;;;;;5084521;28;20043;-82
2022/02/18 14:21:23;;;;;;;7.97;2.38;;;;;;;;;;5090439;28;20047;-82
2022/02/18 14:23:54;;;;;;;5.65;2.13;;;;;;;;;;5083424;28;20060;-82
2022/02/18 14:26:22;;;;;;;7.72;2.03;;;;;;;;;;5077147;28;20101;-82
2022/02/18 14:28:50;;;;;;;6.38;2.38;;;;;;;;;;5085274;28;20044;-82
2022/02/18 14:31:19;;;;;;;6.50;1.85;;;;;;;;;;5084476;28;20036;-81
2022/02/18 14:33:58;;;;;;;5.22;1.65;;;;;;;;;;5087589;28;20056;-82
2022/02/18 14:36:29;;;;;;;10.27;2.65;;;;;;;;;;5093975;28;20045;-82
2022/02/18 14:38:58;;;;;;;6.32;2.63;;;;;;;;;;5092579;28;20044;-82
2022/02/18 14:41:26;;;;;;;7.20;2.38;;;;;;;;;;5092260;28;20044;-82
2022/02/18 14:43:55;;;;;;;6.82;2.63;;;;;;;;;;5084948;28;20068;-81
2022/02/18 14:46:22;;;;;;;6.93;2.17;;;;;;;;;;5084380;28;20032;-82
2022/02/18 14:48:52;;;;;;;7.13;2.67;;;;;;;;;;5081811;28;20044;-81